Terminal Aerodrome Forecast
Issued by NWS

Home | Current Version | Previous Version | Text Only | Print | Product List | Glossary On
Versions: 1 2 3 4 5 6 7 8 9 10 11 12 13 14 15 16 17 18
000
FTUS43 KLSX 221234 AAA
TAFUIN
TAF AMD
KUIN 221234Z 2213/2312 33010KT 6SM -SHRA OVC006
     FM221400 33013G19KT P6SM -SHRA OVC015
     FM221600 33012G20KT P6SM VCSH OVC020
     FM221800 33012KT P6SM OVC035
     FM222100 33007KT P6SM BKN200=

USA.gov is the U.S. government's official web portal to all federal, state and local government web resources and services.